sensor_id;sensor_type;location;lat;lon;timestamp;temperature;humidity
2477;DHT22;1249;51.270;6.756;2023-02-01T00:01:05;9.30;99.90
2477;DHT22;1249;51.270;6.756;2023-02-01T00:03:32;9.20;99.90
2477;DHT22;1249;51.270;6.756;2023-02-01T00:05:59;9.40;99.90
2477;DHT22;1249;51.270;6.756;2023-02-01T00:08:27;9.20;99.90
2477;DHT22;1249;51.270;6.756;2023-02-01T00:11:01;9.20;99.90
2477;DHT22;1249;51.270;6.756;2023-02-01T00:13:30;9.20;99.90
2477;DHT22;1249;51.270;6.756;2023-02-01T00:16:03;9.20;99.90
2477;DHT22;1249;51.270;6.756;2023-02-01T00:18:30;9.30;99.90
2477;DHT22;1249;51.270;6.756;2023-02-01T00:20:56;9.20;99.90
2477;DHT22;1249;51.270;6.756;2023-02-01T00:23:23;9.20;99.90
2477;DHT22;1249;51.270;6.756;2023-02-01T00:25:50;9.10;99.90
2477;DHT22;1249;51.270;6.756;2023-02-01T00:28:17;9.10;99.90
2477;DHT22;1249;51.270;6.756;2023-02-01T00:30:45;9.20;99.90
2477;DHT22;1249;51.270;6.756;2023-02-01T00:33:12;9.20;99.90
2477;DHT22;1249;51.270;6.756;2023-02-01T00:35:39;9.30;99.90
2477;DHT22;1249;51.270;6.756;2023-02-01T00:38:05;9.20;99.90
2477;DHT22;1249;51.270;6.756;2023-02-01T00:40:32;9.40;99.90
2477;DHT22;1249;51.270;6.756;2023-02-01T00:42:59;9.20;99.90
2477;DHT22;1249;51.270;6.756;2023-02-01T00:45:25;9.30;99.90
2477;DHT22;1249;51.270;6.756;2023-02-01T00:47:53;9.30;99.90
2477;DHT22;1249;51.270;6.756;2023-02-01T00:50:20;9.30;99.90
2477;DHT22;1249;51.270;6.756;2023-02-01T00:52:47;9.20;99.90
2477;DHT22;1249;51.270;6.756;2023-02-01T00:55:14;9.20;99.90
2477;DHT22;1249;51.270;6.756;2023-02-01T00:57:40;9.20;99.90
2477;DHT22;1249;51.270;6.756;2023-02-01T01:00:08;9.20;99.90
2477;DHT22;1249;51.270;6.756;2023-02-01T01:02:35;9.30;99.90
2477;DHT22;1249;51.270;6.756;2023-02-01T01:05:04;9.20;99.90
2477;DHT22;1249;51.270;6.756;2023-02-01T01:07:30;9.20;99.90
2477;DHT22;1249;51.270;6.756;2023-02-01T01:09:57;9.20;99.90
2477;DHT22;1249;51.270;6.756;2023-02-01T01:12:24;9.20;99.90
2477;DHT22;1249;51.270;6.756;2023-02-01T01:14:51;9.20;99.90
2477;DHT22;1249;51.270;6.756;2023-02-01T01:17:17;9.20;99.90
2477;DHT22;1249;51.270;6.756;2023-02-01T01:19:44;9.20;99.90
2477;DHT22;1249;51.270;6.756;2023-02-01T01:22:12;9.20;99.90
2477;DHT22;1249;51.270;6.756;2023-02-01T01:24:39;9.20;99.90
2477;DHT22;1249;51.270;6.756;2023-02-01T01:27:05;9.20;99.90
2477;DHT22;1249;51.270;6.756;2023-02-01T01:29:32;9.20;99.90
2477;DHT22;1249;51.270;6.756;2023-02-01T01:31:59;9.20;99.90
2477;DHT22;1249;51.270;6.756;2023-02-01T01:34:26;9.10;99.90
2477;DHT22;1249;51.270;6.756;2023-02-01T01:36:53;9.20;99.90
2477;DHT22;1249;51.270;6.756;2023-02-01T01:39:21;9.20;99.90
2477;DHT22;1249;51.270;6.756;2023-02-01T01:41:47;9.20;99.90
2477;DHT22;1249;51.270;6.756;2023-02-01T01:47:18;9.10;99.90
2477;DHT22;1249;51.270;6.756;2023-02-01T01:49:45;9.10;99.90
2477;DHT22;1249;51.270;6.756;2023-02-01T01:52:12;9.10;99.90
2477;DHT22;1249;51.270;6.756;2023-02-01T01:54:44;9.10;99.90
2477;DHT22;1249;51.270;6.756;2023-02-01T01:57:15;9.10;99.90
2477;DHT22;1249;51.270;6.756;2023-02-01T01:59:47;9.10;99.90
2477;DHT22;1249;51.270;6.756;2023-02-01T02:02:16;9.00;99.90
2477;DHT22;1249;51.270;6.756;2023-02-01T02:04:43;9.00;99.90
2477;DHT22;1249;51.270;6.756;2023-02-01T02:07:11;9.00;99.90
2477;DHT22;1249;51.270;6.756;2023-02-01T02:09:42;9.10;99.90
2477;DHT22;1249;51.270;6.756;2023-02-01T02:12:09;9.00;99.90
2477;DHT22;1249;51.270;6.756;2023-02-01T02:14:36;9.00;99.90
2477;DHT22;1249;51.270;6.756;2023-02-01T02:17:15;9.00;99.90
2477;DHT22;1249;51.270;6.756;2023-02-01T02:20:18;9.00;99.90
2477;DHT22;1249;51.270;6.756;2023-02-01T02:23:01;8.90;99.90
2477;DHT22;1249;51.270;6.756;2023-02-01T02:25:59;8.90;99.90
2477;DHT22;1249;51.270;6.756;2023-02-01T02:28:47;8.90;99.90
2477;DHT22;1249;51.270;6.756;2023-02-01T02:31:35;8.90;99.90
2477;DHT22;1249;51.270;6.756;2023-02-01T02:34:13;8.80;99.90
2477;DHT22;1249;51.270;6.756;2023-02-01T02:36:51;8.80;99.90
2477;DHT22;1249;51.270;6.756;2023-02-01T02:39:26;8.80;99.90
2477;DHT22;1249;51.270;6.756;2023-02-01T02:42:00;8.80;99.90
2477;DHT22;1249;51.270;6.756;2023-02-01T02:44:48;8.80;99.90
2477;DHT22;1249;51.270;6.756;2023-02-01T02:47:38;8.80;99.90
2477;DHT22;1249;51.270;6.756;2023-02-01T02:50:17;8.90;99.90
2477;DHT22;1249;51.270;6.756;2023-02-01T02:53:09;8.80;99.90
2477;DHT22;1249;51.270;6.756;2023-02-01T02:55:55;8.80;99.90
2477;DHT22;1249;51.270;6.756;2023-02-01T02:58:41;8.80;99.90
2477;DHT22;1249;51.270;6.756;2023-02-01T03:01:26;8.80;99.90
2477;DHT22;1249;51.270;6.756;2023-02-01T03:04:11;8.80;99.90
2477;DHT22;1249;51.270;6.756;2023-02-01T03:06:44;8.80;99.90
2477;DHT22;1249;51.270;6.756;2023-02-01T03:09:16;8.80;99.90
2477;DHT22;1249;51.270;6.756;2023-02-01T03:11:43;8.70;99.90
2477;DHT22;1249;51.270;6.756;2023-02-01T03:14:30;8.90;99.90
2477;DHT22;1249;51.270;6.756;2023-02-01T03:17:02;8.80;99.90
2477;DHT22;1249;51.270;6.756;2023-02-01T03:19:33;8.70;99.90
2477;DHT22;1249;51.270;6.756;2023-02-01T03:22:04;8.70;99.90
2477;DHT22;1249;51.270;6.756;2023-02-01T03:24:36;8.90;99.90
2477;DHT22;1249;51.270;6.756;2023-02-01T03:27:09;8.70;99.90
2477;DHT22;1249;51.270;6.756;2023-02-01T03:29:39;8.80;99.90
2477;DHT22;1249;51.270;6.756;2023-02-01T03:32:08;8.70;99.90
2477;DHT22;1249;51.270;6.756;2023-02-01T03:34:36;8.70;99.90
2477;DHT22;1249;51.270;6.756;2023-02-01T03:37:07;8.70;99.90
2477;DHT22;1249;51.270;6.756;2023-02-01T03:39:39;8.90;99.90
2477;DHT22;1249;51.270;6.756;2023-02-01T03:42:12;8.80;99.90
2477;DHT22;1249;51.270;6.756;2023-02-01T03:44:43;8.80;99.90
2477;DHT22;1249;51.270;6.756;2023-02-01T03:47:14;8.80;99.90
2477;DHT22;1249;51.270;6.756;2023-02-01T03:49:47;8.90;99.90
2477;DHT22;1249;51.270;6.756;2023-02-01T03:52:21;8.90;99.90
2477;DHT22;1249;51.270;6.756;2023-02-01T03:54:50;8.80;99.90
2477;DHT22;1249;51.270;6.756;2023-02-01T03:57:23;8.90;99.90
2477;DHT22;1249;51.270;6.756;2023-02-01T03:59:52;8.90;99.90
2477;DHT22;1249;51.270;6.756;2023-02-01T04:02:19;8.90;99.90
2477;DHT22;1249;51.270;6.756;2023-02-01T04:04:46;8.90;99.90
2477;DHT22;1249;51.270;6.756;2023-02-01T04:07:12;8.90;99.90
2477;DHT22;1249;51.270;6.756;2023-02-01T04:09:41;8.80;99.90
2477;DHT22;1249;51.270;6.756;2023-02-01T04:12:07;8.90;99.90
2477;DHT22;1249;51.270;6.756;2023-02-01T04:14:34;9.00;99.90
2477;DHT22;1249;51.270;6.756;2023-02-01T04:17:01;8.90;99.90
2477;DHT22;1249;51.270;6.756;2023-02-01T04:19:28;8.90;99.90
2477;DHT22;1249;51.270;6.756;2023-02-01T04:21:55;9.00;99.90
2477;DHT22;1249;51.270;6.756;2023-02-01T04:24:21;8.80;99.90
2477;DHT22;1249;51.270;6.756;2023-02-01T04:26:50;8.80;99.90
2477;DHT22;1249;51.270;6.756;2023-02-01T04:29:16;8.80;99.90
2477;DHT22;1249;51.270;6.756;2023-02-01T04:31:43;8.80;99.90
2477;DHT22;1249;51.270;6.756;2023-02-01T04:34:11;8.70;99.90
2477;DHT22;1249;51.270;6.756;2023-02-01T04:36:38;8.70;99.90
2477;DHT22;1249;51.270;6.756;2023-02-01T04:39:05;8.70;99.90
2477;DHT22;1249;51.270;6.756;2023-02-01T04:41:31;8.70;99.90
2477;DHT22;1249;51.270;6.756;2023-02-01T04:44:00;9.00;99.90
2477;DHT22;1249;51.270;6.756;2023-02-01T04:46:26;8.70;99.90
2477;DHT22;1249;51.270;6.756;2023-02-01T04:48:53;8.70;99.90
2477;DHT22;1249;51.270;6.756;2023-02-01T04:51:20;8.70;99.90
2477;DHT22;1249;51.270;6.756;2023-02-01T04:53:47;8.70;99.90
2477;DHT22;1249;51.270;6.756;2023-02-01T04:56:14;8.70;99.90
2477;DHT22;1249;51.270;6.756;2023-02-01T04:58:40;8.60;99.90
2477;DHT22;1249;51.270;6.756;2023-02-01T05:01:09;8.60;99.90
2477;DHT22;1249;51.270;6.756;2023-02-01T05:03:35;8.60;99.90
2477;DHT22;1249;51.270;6.756;2023-02-01T05:06:02;8.60;99.90
2477;DHT22;1249;51.270;6.756;2023-02-01T05:08:30;8.70;99.90
2477;DHT22;1249;51.270;6.756;2023-02-01T05:10:57;8.60;99.90
2477;DHT22;1249;51.270;6.756;2023-02-01T05:13:24;8.60;99.90
2477;DHT22;1249;51.270;6.756;2023-02-01T05:16:10;8.90;99.90
2477;DHT22;1249;51.270;6.756;2023-02-01T05:18:36;8.60;99.90
2477;DHT22;1249;51.270;6.756;2023-02-01T05:21:03;8.70;99.90
2477;DHT22;1249;51.270;6.756;2023-02-01T05:23:30;8.60;99.90
2477;DHT22;1249;51.270;6.756;2023-02-01T05:26:00;8.60;99.90
2477;DHT22;1249;51.270;6.756;2023-02-01T05:28:28;8.70;99.90
2477;DHT22;1249;51.270;6.756;2023-02-01T05:30:54;8.60;99.90
2477;DHT22;1249;51.270;6.756;2023-02-01T05:33:22;8.70;99.90
2477;DHT22;1249;51.270;6.756;2023-02-01T05:35:49;8.70;99.90
2477;DHT22;1249;51.270;6.756;2023-02-01T05:38:16;8.60;99.90
2477;DHT22;1249;51.270;6.756;2023-02-01T05:40:43;8.60;99.90
2477;DHT22;1249;51.270;6.756;2023-02-01T05:43:14;8.70;99.90
2477;DHT22;1249;51.270;6.756;2023-02-01T05:45:41;8.70;99.90
2477;DHT22;1249;51.270;6.756;2023-02-01T05:48:08;8.60;99.90
2477;DHT22;1249;51.270;6.756;2023-02-01T05:50:36;8.60;99.90
2477;DHT22;1249;51.270;6.756;2023-02-01T05:53:03;8.80;99.90
2477;DHT22;1249;51.270;6.756;2023-02-01T05:55:29;8.70;99.90
2477;DHT22;1249;51.270;6.756;2023-02-01T05:57:56;8.50;99.90
2477;DHT22;1249;51.270;6.756;2023-02-01T06:00:23;8.70;99.90
2477;DHT22;1249;51.270;6.756;2023-02-01T06:02:50;8.60;99.90
2477;DHT22;1249;51.270;6.756;2023-02-01T06:05:16;8.60;99.90
2477;DHT22;1249;51.270;6.756;2023-02-01T06:07:44;8.60;99.90
2477;DHT22;1249;51.270;6.756;2023-02-01T06:10:12;8.60;99.90
2477;DHT22;1249;51.270;6.756;2023-02-01T06:12:39;8.60;99.90
2477;DHT22;1249;51.270;6.756;2023-02-01T06:15:07;8.80;99.90
2477;DHT22;1249;51.270;6.756;2023-02-01T06:17:33;9.10;99.90
2477;DHT22;1249;51.270;6.756;2023-02-01T06:20:00;8.90;99.90
2477;DHT22;1249;51.270;6.756;2023-02-01T06:22:27;8.90;99.90
2477;DHT22;1249;51.270;6.756;2023-02-01T06:24:55;8.60;99.90
2477;DHT22;1249;51.270;6.756;2023-02-01T06:27:23;8.40;99.90
2477;DHT22;1249;51.270;6.756;2023-02-01T06:29:50;8.40;99.90
2477;DHT22;1249;51.270;6.756;2023-02-01T06:32:17;8.50;99.90
2477;DHT22;1249;51.270;6.756;2023-02-01T06:34:44;8.50;99.90
2477;DHT22;1249;51.270;6.756;2023-02-01T06:37:10;8.40;99.90
2477;DHT22;1249;51.270;6.756;2023-02-01T06:39:37;8.50;99.90
2477;DHT22;1249;51.270;6.756;2023-02-01T06:42:06;8.50;99.90
2477;DHT22;1249;51.270;6.756;2023-02-01T06:44:32;8.50;99.90
2477;DHT22;1249;51.270;6.756;2023-02-01T06:46:59;8.90;99.90
2477;DHT22;1249;51.270;6.756;2023-02-01T06:49:26;8.80;99.90
2477;DHT22;1249;51.270;6.756;2023-02-01T06:51:52;8.80;99.90
2477;DHT22;1249;51.270;6.756;2023-02-01T06:54:19;8.70;99.90
2477;DHT22;1249;51.270;6.756;2023-02-01T06:56:46;8.70;99.90
2477;DHT22;1249;51.270;6.756;2023-02-01T06:59:14;8.50;99.90
2477;DHT22;1249;51.270;6.756;2023-02-01T07:01:41;9.00;99.90
2477;DHT22;1249;51.270;6.756;2023-02-01T07:04:09;9.30;99.90
2477;DHT22;1249;51.270;6.756;2023-02-01T07:06:37;9.10;99.90
2477;DHT22;1249;51.270;6.756;2023-02-01T07:09:05;9.00;99.90
2477;DHT22;1249;51.270;6.756;2023-02-01T07:11:32;9.00;99.90
2477;DHT22;1249;51.270;6.756;2023-02-01T07:13:58;8.90;99.90
2477;DHT22;1249;51.270;6.756;2023-02-01T07:16:27;8.70;99.90
2477;DHT22;1249;51.270;6.756;2023-02-01T07:18:54;8.70;99.90
2477;DHT22;1249;51.270;6.756;2023-02-01T07:21:21;8.70;99.90
2477;DHT22;1249;51.270;6.756;2023-02-01T07:23:47;8.60;99.90
2477;DHT22;1249;51.270;6.756;2023-02-01T07:26:14;8.60;99.90
2477;DHT22;1249;51.270;6.756;2023-02-01T07:28:42;8.50;99.90
2477;DHT22;1249;51.270;6.756;2023-02-01T07:31:10;8.50;99.90
2477;DHT22;1249;51.270;6.756;2023-02-01T07:33:40;8.50;99.90
2477;DHT22;1249;51.270;6.756;2023-02-01T07:36:11;8.50;99.90
2477;DHT22;1249;51.270;6.756;2023-02-01T07:38:38;8.50;99.90
2477;DHT22;1249;51.270;6.756;2023-02-01T07:41:05;8.80;99.90
2477;DHT22;1249;51.270;6.756;2023-02-01T07:43:33;8.50;99.90
2477;DHT22;1249;51.270;6.756;2023-02-01T07:46:00;8.60;99.90
2477;DHT22;1249;51.270;6.756;2023-02-01T07:48:28;8.60;99.90
2477;DHT22;1249;51.270;6.756;2023-02-01T07:51:00;8.60;99.90
2477;DHT22;1249;51.270;6.756;2023-02-01T07:53:28;8.60;99.90
2477;DHT22;1249;51.270;6.756;2023-02-01T07:55:56;8.60;99.90
2477;DHT22;1249;51.270;6.756;2023-02-01T07:58:23;8.50;99.90
2477;DHT22;1249;51.270;6.756;2023-02-01T08:00:50;8.60;99.90
2477;DHT22;1249;51.270;6.756;2023-02-01T08:03:34;8.50;99.90
2477;DHT22;1249;51.270;6.756;2023-02-01T08:06:02;8.80;99.90
2477;DHT22;1249;51.270;6.756;2023-02-01T08:08:29;8.60;99.90
2477;DHT22;1249;51.270;6.756;2023-02-01T08:11:00;8.80;99.90
2477;DHT22;1249;51.270;6.756;2023-02-01T08:13:27;8.60;99.90
2477;DHT22;1249;51.270;6.756;2023-02-01T08:15:57;8.60;99.90
2477;DHT22;1249;51.270;6.756;2023-02-01T08:18:24;8.70;99.90
2477;DHT22;1249;51.270;6.756;2023-02-01T08:20:52;8.60;99.90
2477;DHT22;1249;51.270;6.756;2023-02-01T08:23:20;8.60;99.90
2477;DHT22;1249;51.270;6.756;2023-02-01T08:25:47;8.50;99.90
2477;DHT22;1249;51.270;6.756;2023-02-01T08:28:14;8.50;99.90
2477;DHT22;1249;51.270;6.756;2023-02-01T08:30:41;8.70;99.90
2477;DHT22;1249;51.270;6.756;2023-02-01T08:33:08;8.70;99.90
2477;DHT22;1249;51.270;6.756;2023-02-01T08:35:35;8.60;99.90
2477;DHT22;1249;51.270;6.756;2023-02-01T08:38:02;8.80;99.90
2477;DHT22;1249;51.270;6.756;2023-02-01T08:40:31;8.70;99.90
2477;DHT22;1249;51.270;6.756;2023-02-01T08:42:58;8.70;99.90
2477;DHT22;1249;51.270;6.756;2023-02-01T08:45:28;8.60;99.90
2477;DHT22;1249;51.270;6.756;2023-02-01T08:47:56;8.80;99.90
2477;DHT22;1249;51.270;6.756;2023-02-01T08:50:24;8.80;99.90
2477;DHT22;1249;51.270;6.756;2023-02-01T08:52:51;8.80;99.90
2477;DHT22;1249;51.270;6.756;2023-02-01T08:55:18;8.70;99.90
2477;DHT22;1249;51.270;6.756;2023-02-01T08:57:46;8.60;99.90
2477;DHT22;1249;51.270;6.756;2023-02-01T09:00:14;8.70;99.90
2477;DHT22;1249;51.270;6.756;2023-02-01T09:02:42;8.70;99.90
2477;DHT22;1249;51.270;6.756;2023-02-01T09:05:09;8.80;99.90
2477;DHT22;1249;51.270;6.756;2023-02-01T09:07:36;8.90;99.90
2477;DHT22;1249;51.270;6.756;2023-02-01T09:10:04;8.90;99.90
2477;DHT22;1249;51.270;6.756;2023-02-01T09:12:32;9.00;99.90
2477;DHT22;1249;51.270;6.756;2023-02-01T09:15:01;9.10;99.90
2477;DHT22;1249;51.270;6.756;2023-02-01T09:17:29;8.80;99.90
2477;DHT22;1249;51.270;6.756;2023-02-01T09:19:56;8.80;99.90
2477;DHT22;1249;51.270;6.756;2023-02-01T09:22:22;8.80;99.90
2477;DHT22;1249;51.270;6.756;2023-02-01T09:24:49;9.00;99.90
2477;DHT22;1249;51.270;6.756;2023-02-01T09:27:16;9.00;99.90
2477;DHT22;1249;51.270;6.756;2023-02-01T09:29:43;10.10;99.90
2477;DHT22;1249;51.270;6.756;2023-02-01T09:32:11;10.60;99.90
2477;DHT22;1249;51.270;6.756;2023-02-01T09:34:38;10.60;99.90
2477;DHT22;1249;51.270;6.756;2023-02-01T09:37:04;10.50;99.90
2477;DHT22;1249;51.270;6.756;2023-02-01T09:39:31;10.40;99.90
2477;DHT22;1249;51.270;6.756;2023-02-01T09:42:04;10.40;99.90
2477;DHT22;1249;51.270;6.756;2023-02-01T09:44:56;10.30;99.90
2477;DHT22;1249;51.270;6.756;2023-02-01T09:47:27;10.30;99.90
2477;DHT22;1249;51.270;6.756;2023-02-01T09:49:58;10.20;99.90
2477;DHT22;1249;51.270;6.756;2023-02-01T09:52:31;10.20;99.90
2477;DHT22;1249;51.270;6.756;2023-02-01T09:55:01;10.10;99.90
2477;DHT22;1249;51.270;6.756;2023-02-01T09:57:40;10.00;99.90
2477;DHT22;1249;51.270;6.756;2023-02-01T10:00:16;10.00;99.90
2477;DHT22;1249;51.270;6.756;2023-02-01T10:02:46;10.00;99.90
2477;DHT22;1249;51.270;6.756;2023-02-01T10:05:14;10.50;99.90
2477;DHT22;1249;51.270;6.756;2023-02-01T10:07:48;11.10;99.90
2477;DHT22;1249;51.270;6.756;2023-02-01T10:10:20;11.60;99.90
2477;DHT22;1249;51.270;6.756;2023-02-01T10:16:07;12.30;99.90
2477;DHT22;1249;51.270;6.756;2023-02-01T10:18:49;12.60;99.90
2477;DHT22;1249;51.270;6.756;2023-02-01T10:21:26;12.40;99.90
2477;DHT22;1249;51.270;6.756;2023-02-01T10:24:16;12.00;99.90
2477;DHT22;1249;51.270;6.756;2023-02-01T10:26:45;12.00;99.90
2477;DHT22;1249;51.270;6.756;2023-02-01T10:29:18;11.80;99.90
2477;DHT22;1249;51.270;6.756;2023-02-01T10:31:45;11.40;99.90
2477;DHT22;1249;51.270;6.756;2023-02-01T10:34:18;11.20;99.90
2477;DHT22;1249;51.270;6.756;2023-02-01T10:36:54;11.70;99.90
2477;DHT22;1249;51.270;6.756;2023-02-01T10:39:22;12.20;99.90
2477;DHT22;1249;51.270;6.756;2023-02-01T10:41:49;12.50;99.90
2477;DHT22;1249;51.270;6.756;2023-02-01T10:44:19;12.70;99.90
2477;DHT22;1249;51.270;6.756;2023-02-01T10:46:48;12.50;99.90
2477;DHT22;1249;51.270;6.756;2023-02-01T10:49:19;12.00;99.90
2477;DHT22;1249;51.270;6.756;2023-02-01T10:51:51;11.60;99.90
2477;DHT22;1249;51.270;6.756;2023-02-01T10:54:20;11.40;99.90
2477;DHT22;1249;51.270;6.756;2023-02-01T10:56:48;11.30;99.90
2477;DHT22;1249;51.270;6.756;2023-02-01T10:59:17;10.90;99.90
2477;DHT22;1249;51.270;6.756;2023-02-01T11:01:45;10.80;99.90
2477;DHT22;1249;51.270;6.756;2023-02-01T11:04:13;10.70;99.90
2477;DHT22;1249;51.270;6.756;2023-02-01T11:06:44;10.70;99.90
2477;DHT22;1249;51.270;6.756;2023-02-01T11:09:16;10.40;99.90
2477;DHT22;1249;51.270;6.756;2023-02-01T11:11:59;10.40;99.90
2477;DHT22;1249;51.270;6.756;2023-02-01T11:14:32;10.40;99.90
2477;DHT22;1249;51.270;6.756;2023-02-01T11:17:01;10.30;99.90
2477;DHT22;1249;51.270;6.756;2023-02-01T11:19:29;10.10;99.90
2477;DHT22;1249;51.270;6.756;2023-02-01T11:21:59;10.20;99.90
2477;DHT22;1249;51.270;6.756;2023-02-01T11:24:28;10.10;99.90
2477;DHT22;1249;51.270;6.756;2023-02-01T11:26:56;10.10;99.90
2477;DHT22;1249;51.270;6.756;2023-02-01T11:29:24;10.10;99.90
2477;DHT22;1249;51.270;6.756;2023-02-01T11:31:58;10.20;99.90
2477;DHT22;1249;51.270;6.756;2023-02-01T11:34:28;10.20;99.90
2477;DHT22;1249;51.270;6.756;2023-02-01T11:37:00;10.10;99.90
2477;DHT22;1249;51.270;6.756;2023-02-01T11:39:31;10.10;99.90
2477;DHT22;1249;51.270;6.756;2023-02-01T11:42:04;10.00;99.90
2477;DHT22;1249;51.270;6.756;2023-02-01T11:44:35;10.20;99.90
2477;DHT22;1249;51.270;6.756;2023-02-01T11:47:21;10.20;99.90
2477;DHT22;1249;51.270;6.756;2023-02-01T11:49:50;10.10;99.90
2477;DHT22;1249;51.270;6.756;2023-02-01T11:52:41;10.00;99.90
2477;DHT22;1249;51.270;6.756;2023-02-01T11:55:42;10.00;99.90
2477;DHT22;1249;51.270;6.756;2023-02-01T12:06:54;10.20;99.90
2477;DHT22;1249;51.270;6.756;2023-02-01T12:09:34;10.30;99.90
2477;DHT22;1249;51.270;6.756;2023-02-01T12:12:11;10.30;99.90
2477;DHT22;1249;51.270;6.756;2023-02-01T12:14:55;10.30;99.90
2477;DHT22;1249;51.270;6.756;2023-02-01T12:20:28;10.10;99.90
2477;DHT22;1249;51.270;6.756;2023-02-01T12:23:06;10.20;99.90
2477;DHT22;1249;51.270;6.756;2023-02-01T12:25:44;10.20;99.90
2477;DHT22;1249;51.270;6.756;2023-02-01T12:28:31;10.10;99.90
2477;DHT22;1249;51.270;6.756;2023-02-01T12:31:24;10.00;99.90
2477;DHT22;1249;51.270;6.756;2023-02-01T12:34:27;10.00;99.90
2477;DHT22;1249;51.270;6.756;2023-02-01T12:36:59;10.00;99.90
2477;DHT22;1249;51.270;6.756;2023-02-01T12:39:31;10.00;99.90
2477;DHT22;1249;51.270;6.756;2023-02-01T12:42:03;10.00;99.90
2477;DHT22;1249;51.270;6.756;2023-02-01T12:44:40;10.00;99.90
2477;DHT22;1249;51.270;6.756;2023-02-01T12:47:18;10.00;99.90
2477;DHT22;1249;51.270;6.756;2023-02-01T12:49:53;10.00;99.90
2477;DHT22;1249;51.270;6.756;2023-02-01T12:52:26;10.00;99.90
2477;DHT22;1249;51.270;6.756;2023-02-01T12:54:57;9.90;99.90
2477;DHT22;1249;51.270;6.756;2023-02-01T12:57:31;9.80;99.90
2477;DHT22;1249;51.270;6.756;2023-02-01T13:00:05;9.70;99.90
2477;DHT22;1249;51.270;6.756;2023-02-01T13:02:39;9.70;99.90
2477;DHT22;1249;51.270;6.756;2023-02-01T13:05:15;9.80;99.90
2477;DHT22;1249;51.270;6.756;2023-02-01T13:07:48;9.70;99.90
2477;DHT22;1249;51.270;6.756;2023-02-01T13:10:20;9.80;99.90
2477;DHT22;1249;51.270;6.756;2023-02-01T13:12:53;9.90;99.90
2477;DHT22;1249;51.270;6.756;2023-02-01T13:15:24;9.80;99.90
2477;DHT22;1249;51.270;6.756;2023-02-01T13:17:54;9.70;99.90
2477;DHT22;1249;51.270;6.756;2023-02-01T13:20:24;9.70;99.90
2477;DHT22;1249;51.270;6.756;2023-02-01T13:22:55;9.80;99.90
2477;DHT22;1249;51.270;6.756;2023-02-01T13:25:30;9.80;99.90
2477;DHT22;1249;51.270;6.756;2023-02-01T13:28:03;9.90;99.90
2477;DHT22;1249;51.270;6.756;2023-02-01T13:30:41;9.80;99.90
2477;DHT22;1249;51.270;6.756;2023-02-01T13:33:29;10.10;99.90
2477;DHT22;1249;51.270;6.756;2023-02-01T13:42:04;9.80;99.90
2477;DHT22;1249;51.270;6.756;2023-02-01T13:44:40;9.80;99.90
2477;DHT22;1249;51.270;6.756;2023-02-01T13:47:16;9.60;99.90
2477;DHT22;1249;51.270;6.756;2023-02-01T13:49:45;9.70;99.90
2477;DHT22;1249;51.270;6.756;2023-02-01T13:52:25;9.80;99.90
2477;DHT22;1249;51.270;6.756;2023-02-01T13:55:15;9.80;99.90
2477;DHT22;1249;51.270;6.756;2023-02-01T13:57:43;9.70;99.90
2477;DHT22;1249;51.270;6.756;2023-02-01T14:00:26;9.70;99.90
2477;DHT22;1249;51.270;6.756;2023-02-01T14:03:18;9.70;99.90
2477;DHT22;1249;51.270;6.756;2023-02-01T14:06:18;9.60;99.90
2477;DHT22;1249;51.270;6.756;2023-02-01T14:09:32;9.90;99.90
2477;DHT22;1249;51.270;6.756;2023-02-01T14:15:22;9.50;99.90
2477;DHT22;1249;51.270;6.756;2023-02-01T14:17:51;9.70;99.90
2477;DHT22;1249;51.270;6.756;2023-02-01T14:20:45;9.70;99.90
2477;DHT22;1249;51.270;6.756;2023-02-01T14:23:28;9.70;99.90
2477;DHT22;1249;51.270;6.756;2023-02-01T14:26:09;9.70;99.90
2477;DHT22;1249;51.270;6.756;2023-02-01T14:28:41;9.60;99.90
2477;DHT22;1249;51.270;6.756;2023-02-01T14:31:22;9.70;99.90
2477;DHT22;1249;51.270;6.756;2023-02-01T14:33:57;9.70;99.90
2477;DHT22;1249;51.270;6.756;2023-02-01T14:36:25;9.70;99.90
2477;DHT22;1249;51.270;6.756;2023-02-01T14:38:53;9.70;99.90
2477;DHT22;1249;51.270;6.756;2023-02-01T14:41:32;9.60;99.90
2477;DHT22;1249;51.270;6.756;2023-02-01T14:44:28;9.80;99.90
2477;DHT22;1249;51.270;6.756;2023-02-01T14:50:31;9.70;99.90
2477;DHT22;1249;51.270;6.756;2023-02-01T14:53:14;9.70;99.90
2477;DHT22;1249;51.270;6.756;2023-02-01T14:55:46;9.80;99.90
2477;DHT22;1249;51.270;6.756;2023-02-01T14:58:18;10.10;99.90
2477;DHT22;1249;51.270;6.756;2023-02-01T15:00:51;10.50;99.90
2477;DHT22;1249;51.270;6.756;2023-02-01T15:03:43;10.30;99.90
2477;DHT22;1249;51.270;6.756;2023-02-01T15:06:27;10.00;99.90
2477;DHT22;1249;51.270;6.756;2023-02-01T15:08:57;10.00;99.90
2477;DHT22;1249;51.270;6.756;2023-02-01T15:11:25;10.00;99.90
2477;DHT22;1249;51.270;6.756;2023-02-01T15:13:56;9.80;99.90
2477;DHT22;1249;51.270;6.756;2023-02-01T15:16:24;9.70;99.90
2477;DHT22;1249;51.270;6.756;2023-02-01T15:19:07;9.70;99.90
2477;DHT22;1249;51.270;6.756;2023-02-01T15:21:44;9.70;99.90
2477;DHT22;1249;51.270;6.756;2023-02-01T15:24:12;9.70;99.90
2477;DHT22;1249;51.270;6.756;2023-02-01T15:26:39;9.70;99.90
2477;DHT22;1249;51.270;6.756;2023-02-01T15:29:13;9.50;99.90
2477;DHT22;1249;51.270;6.756;2023-02-01T15:31:43;9.70;99.90
2477;DHT22;1249;51.270;6.756;2023-02-01T15:34:10;9.80;99.90
2477;DHT22;1249;51.270;6.756;2023-02-01T15:36:37;9.80;99.90
2477;DHT22;1249;51.270;6.756;2023-02-01T15:39:23;9.80;99.90
2477;DHT22;1249;51.270;6.756;2023-02-01T15:41:53;9.90;99.90
2477;DHT22;1249;51.270;6.756;2023-02-01T15:44:30;9.90;99.90
2477;DHT22;1249;51.270;6.756;2023-02-01T15:46:58;9.80;99.90
2477;DHT22;1249;51.270;6.756;2023-02-01T15:49:27;9.70;99.90
2477;DHT22;1249;51.270;6.756;2023-02-01T15:51:55;9.90;99.90
2477;DHT22;1249;51.270;6.756;2023-02-01T15:54:26;9.80;99.90
2477;DHT22;1249;51.270;6.756;2023-02-01T15:57:00;9.80;99.90
2477;DHT22;1249;51.270;6.756;2023-02-01T15:59:31;9.80;99.90
2477;DHT22;1249;51.270;6.756;2023-02-01T16:01:59;9.70;99.90
2477;DHT22;1249;51.270;6.756;2023-02-01T16:04:28;9.70;99.90
2477;DHT22;1249;51.270;6.756;2023-02-01T16:06:58;9.80;99.90
2477;DHT22;1249;51.270;6.756;2023-02-01T16:09:37;9.70;99.90
2477;DHT22;1249;51.270;6.756;2023-02-01T16:12:23;9.70;99.90
2477;DHT22;1249;51.270;6.756;2023-02-01T16:14:51;9.80;99.90
2477;DHT22;1249;51.270;6.756;2023-02-01T16:17:18;9.80;99.90
2477;DHT22;1249;51.270;6.756;2023-02-01T16:19:44;9.90;99.90
2477;DHT22;1249;51.270;6.756;2023-02-01T16:22:11;9.70;99.90
2477;DHT22;1249;51.270;6.756;2023-02-01T16:24:39;9.70;99.90
2477;DHT22;1249;51.270;6.756;2023-02-01T16:27:06;9.90;99.90
2477;DHT22;1249;51.270;6.756;2023-02-01T16:29:33;9.80;99.90
2477;DHT22;1249;51.270;6.756;2023-02-01T16:32:00;9.90;99.90
2477;DHT22;1249;51.270;6.756;2023-02-01T16:34:27;9.90;99.90
2477;DHT22;1249;51.270;6.756;2023-02-01T16:36:53;9.90;99.90
2477;DHT22;1249;51.270;6.756;2023-02-01T16:39:22;9.80;99.90
2477;DHT22;1249;51.270;6.756;2023-02-01T16:41:51;9.80;99.90
2477;DHT22;1249;51.270;6.756;2023-02-01T16:44:17;9.50;99.90
2477;DHT22;1249;51.270;6.756;2023-02-01T16:46:46;9.50;99.90
2477;DHT22;1249;51.270;6.756;2023-02-01T16:49:18;9.50;99.90
2477;DHT22;1249;51.270;6.756;2023-02-01T16:51:45;9.30;99.90
2477;DHT22;1249;51.270;6.756;2023-02-01T16:54:13;9.50;99.90
2477;DHT22;1249;51.270;6.756;2023-02-01T16:56:41;9.40;99.90
2477;DHT22;1249;51.270;6.756;2023-02-01T16:59:10;9.50;99.90
2477;DHT22;1249;51.270;6.756;2023-02-01T17:01:38;9.50;99.90
2477;DHT22;1249;51.270;6.756;2023-02-01T17:04:06;9.50;99.90
2477;DHT22;1249;51.270;6.756;2023-02-01T17:06:35;9.40;99.90
2477;DHT22;1249;51.270;6.756;2023-02-01T17:09:03;9.60;99.90
2477;DHT22;1249;51.270;6.756;2023-02-01T17:11:30;9.70;99.90